This is the latest recevied weather packets stored in our database for station/object G0AMO. If no packets are shown the sender has not sent any weather packets the latest 10 day(s).
| Time | Temp. | Humidity | Pressure | Rain* | Wind** | Luminosity | Snow |
|---|---|---|---|---|---|---|---|
| 1777589705 | 12.22° C | 61% | 1020 hPa | 0 mm | - | 0 W/m² | - |
| 1777587304 | 12.78° C | 57% | 1020.3 hPa | 0 mm | - | 0 W/m² | - |
| 1777586705 | 13.33° C | 57% | 1021 hPa | 0 mm | - | 0 W/m² | - |
| 1777586104 | 13.33° C | 56% | 1020.3 hPa | 0 mm | - | 0 W/m² | - |
| 1777582504 | 13.89° C | 55% | 1020 hPa | 0 mm | - | 0 W/m² | - |
| 1777578905 | 16.67° C | 40% | 1020 hPa | 0 mm | - | 0 W/m² | - |
| 1777575604 | 18.33° C | 37% | 1020.7 hPa | 0 mm | - | 0 W/m² | - |
| 1777572904 | 19.44° C | 33% | 1020.3 hPa | 0 mm | - | 0 W/m² | - |
| 1777570505 | 20.56° C | 31% | 1020 hPa | 0 mm | - | 178 W/m² | - |
| 1777561504 | 22.22° C | 28% | 1019.3 hPa | 0 mm | - | 881 W/m² | - |
| 1777560605 | 22.78° C | 29% | 1019.6 hPa | 0 mm | - | 948 W/m² | - |
| 1777560004 | 22.22° C | 30% | 1020 hPa | 0 mm | - | 990 W/m² | - |
| 1777557004 | 22.22° C | 30% | 1020 hPa | 0 mm | - | 1166 W/m² | - |
| 1777556104 | 21.67° C | 30% | 1020 hPa | 0 mm | - | 1205 W/m² | - |
| 1777554604 | 21.11° C | 31% | 1020.7 hPa | 0 mm | - | 1255 W/m² | - |
| 1777554304 | 21.11° C | 32% | 1020.7 hPa | 0 mm | - | 1262 W/m² | - |
| 1777553704 | 21.11° C | 30% | 1020.3 hPa | 0 mm | - | 1275 W/m² | - |
| 1777553104 | 21.11° C | 35% | 1020.3 hPa | 0 mm | - | 1283 W/m² | - |
| 1777550104 | 20.56° C | 36% | 1020.7 hPa | 0 mm | - | 1271 W/m² | - |
| 1777548304 | 19.44° C | 38% | 1021.3 hPa | 0 mm | - | 1221 W/m² | - |
| 1777548004 | 20° C | 41% | 1021 hPa | 0 mm | - | 1210 W/m² | - |
| 1777545904 | 18.33° C | 42% | 1021.3 hPa | 0 mm | - | 1110 W/m² | - |
| 1777545005 | 18.33° C | 43% | 1021.7 hPa | 0 mm | - | 1057 W/m² | - |
| 1777544404 | 18.33° C | 43% | 1021.7 hPa | 0 mm | - | 1018 W/m² | - |
| 1777543203 | 17.78° C | 43% | 1022 hPa | 0 mm | - | 935 W/m² | - |
* Rain latest hour (hover to see other rain measurements)
** Current wind speed in m/s (hover to see current wind gust speed)